sensor_id;sensor_type;location;lat;lon;timestamp;pressure;altitude;pressure_sealevel;temperature;humidity
80837;BME280;70251;60.008;30.404;2023-12-28T00:01:25;100407.13;;;-3.15;67.72
80837;BME280;70251;60.008;30.404;2023-12-28T00:03:50;100415.97;;;-3.19;67.36
80837;BME280;70251;60.008;30.404;2023-12-28T00:06:16;100415.78;;;-3.14;67.78
80837;BME280;70251;60.008;30.404;2023-12-28T00:08:42;100425.38;;;-3.15;67.85
80837;BME280;70251;60.008;30.404;2023-12-28T00:11:08;100409.78;;;-3.16;67.88
80837;BME280;70251;60.008;30.404;2023-12-28T00:13:33;100420.09;;;-3.13;67.95
80837;BME280;70251;60.008;30.404;2023-12-28T00:15:59;100426.56;;;-3.23;68.86
80837;BME280;70251;60.008;30.404;2023-12-28T00:18:25;100439.59;;;-3.23;68.84
80837;BME280;70251;60.008;30.404;2023-12-28T00:20:51;100436.09;;;-3.22;68.79
80837;BME280;70251;60.008;30.404;2023-12-28T00:23:17;100431.44;;;-3.14;68.61
80837;BME280;70251;60.008;30.404;2023-12-28T00:25:43;100444.59;;;-3.17;69.52
80837;BME280;70251;60.008;30.404;2023-12-28T00:28:08;100447.97;;;-3.15;69.76
80837;BME280;70251;60.008;30.404;2023-12-28T00:30:34;100444.72;;;-3.20;69.79
80837;BME280;70251;60.008;30.404;2023-12-28T00:33:00;100435.41;;;-3.27;70.03
80837;BME280;70251;60.008;30.404;2023-12-28T00:35:26;100450.00;;;-3.22;69.86
80837;BME280;70251;60.008;30.404;2023-12-28T00:37:52;100461.03;;;-3.15;70.30
80837;BME280;70251;60.008;30.404;2023-12-28T00:40:17;100454.22;;;-3.19;70.35
80837;BME280;70251;60.008;30.404;2023-12-28T00:42:43;100460.84;;;-3.09;70.45
80837;BME280;70251;60.008;30.404;2023-12-28T00:45:09;100448.84;;;-3.15;70.62
80837;BME280;70251;60.008;30.404;2023-12-28T00:47:35;100452.22;;;-3.11;70.10
80837;BME280;70251;60.008;30.404;2023-12-28T00:50:01;100459.03;;;-3.07;70.50
80837;BME280;70251;60.008;30.404;2023-12-28T00:52:29;100455.81;;;-3.15;70.75
80837;BME280;70251;60.008;30.404;2023-12-28T00:54:54;100453.59;;;-3.26;70.74
80837;BME280;70251;60.008;30.404;2023-12-28T00:57:20;100455.94;;;-3.18;71.13
80837;BME280;70251;60.008;30.404;2023-12-28T00:59:46;100464.16;;;-3.29;71.14
80837;BME280;70251;60.008;30.404;2023-12-28T01:02:11;100457.13;;;-3.27;70.82
80837;BME280;70251;60.008;30.404;2023-12-28T01:04:37;100466.13;;;-3.35;71.51
80837;BME280;70251;60.008;30.404;2023-12-28T01:07:02;100465.94;;;-3.55;72.00
80837;BME280;70251;60.008;30.404;2023-12-28T01:09:31;100459.94;;;-3.57;71.89
80837;BME280;70251;60.008;30.404;2023-12-28T01:11:58;100463.94;;;-3.47;71.70
80837;BME280;70251;60.008;30.404;2023-12-28T01:14:24;100464.53;;;-3.39;72.10
80837;BME280;70251;60.008;30.404;2023-12-28T01:16:50;100463.38;;;-3.32;72.17
80837;BME280;70251;60.008;30.404;2023-12-28T01:19:16;100465.56;;;-3.20;71.33
80837;BME280;70251;60.008;30.404;2023-12-28T01:21:41;100457.63;;;-3.17;71.42
80837;BME280;70251;60.008;30.404;2023-12-28T01:24:07;100466.06;;;-3.09;71.20
80837;BME280;70251;60.008;30.404;2023-12-28T01:26:33;100461.41;;;-3.01;71.41
80837;BME280;70251;60.008;30.404;2023-12-28T01:29:00;100463.69;;;-2.92;71.20
80837;BME280;70251;60.008;30.404;2023-12-28T01:31:29;100464.09;;;-2.81;71.16
80837;BME280;70251;60.008;30.404;2023-12-28T01:33:54;100462.41;;;-2.82;70.29
80837;BME280;70251;60.008;30.404;2023-12-28T01:36:21;100459.63;;;-2.77;70.59
80837;BME280;70251;60.008;30.404;2023-12-28T01:38:47;100469.06;;;-2.73;70.61
80837;BME280;70251;60.008;30.404;2023-12-28T01:41:13;100470.47;;;-2.65;70.31
80837;BME280;70251;60.008;30.404;2023-12-28T01:43:44;100475.50;;;-2.60;69.62
80837;BME280;70251;60.008;30.404;2023-12-28T01:46:16;100470.16;;;-2.57;69.18
80837;BME280;70251;60.008;30.404;2023-12-28T01:48:45;100474.59;;;-2.59;69.37
80837;BME280;70251;60.008;30.404;2023-12-28T01:51:12;100476.22;;;-2.57;69.96
80837;BME280;70251;60.008;30.404;2023-12-28T01:53:38;100476.13;;;-2.54;70.12
80837;BME280;70251;60.008;30.404;2023-12-28T01:56:05;100486.97;;;-2.64;70.06
80837;BME280;70251;60.008;30.404;2023-12-28T01:58:33;100480.34;;;-2.73;70.33
80837;BME280;70251;60.008;30.404;2023-12-28T02:00:59;100481.94;;;-2.69;70.91
80837;BME280;70251;60.008;30.404;2023-12-28T02:03:26;100473.94;;;-2.64;70.18
80837;BME280;70251;60.008;30.404;2023-12-28T02:05:52;100480.91;;;-2.65;70.57
80837;BME280;70251;60.008;30.404;2023-12-28T02:08:17;100485.09;;;-2.61;70.19
80837;BME280;70251;60.008;30.404;2023-12-28T02:10:43;100487.72;;;-2.61;70.78
80837;BME280;70251;60.008;30.404;2023-12-28T02:13:09;100496.16;;;-2.54;70.40
80837;BME280;70251;60.008;30.404;2023-12-28T02:15:35;100486.56;;;-2.54;69.82
80837;BME280;70251;60.008;30.404;2023-12-28T02:18:03;100494.56;;;-2.58;70.01
80837;BME280;70251;60.008;30.404;2023-12-28T02:20:31;100491.28;;;-2.63;70.52
80837;BME280;70251;60.008;30.404;2023-12-28T02:22:58;100495.88;;;-2.70;69.92
80837;BME280;70251;60.008;30.404;2023-12-28T02:25:24;100493.19;;;-2.68;70.18
80837;BME280;70251;60.008;30.404;2023-12-28T02:27:50;100494.97;;;-2.69;69.77
80837;BME280;70251;60.008;30.404;2023-12-28T02:30:17;100498.47;;;-2.70;69.94
80837;BME280;70251;60.008;30.404;2023-12-28T02:35:32;100494.03;;;-2.66;70.27
80837;BME280;70251;60.008;30.404;2023-12-28T02:38:02;100493.19;;;-2.68;70.08
80837;BME280;70251;60.008;30.404;2023-12-28T02:40:32;100499.28;;;-2.68;69.83
80837;BME280;70251;60.008;30.404;2023-12-28T02:43:01;100497.59;;;-2.69;69.58
80837;BME280;70251;60.008;30.404;2023-12-28T02:45:26;100495.00;;;-2.70;69.34
80837;BME280;70251;60.008;30.404;2023-12-28T02:47:52;100501.22;;;-2.73;69.78
80837;BME280;70251;60.008;30.404;2023-12-28T02:50:18;100507.41;;;-2.98;69.44
80837;BME280;70251;60.008;30.404;2023-12-28T02:52:43;100502.66;;;-3.12;69.69
80837;BME280;70251;60.008;30.404;2023-12-28T02:55:09;100504.56;;;-3.17;69.71
80837;BME280;70251;60.008;30.404;2023-12-28T02:57:35;100507.31;;;-3.20;69.82
80837;BME280;70251;60.008;30.404;2023-12-28T03:00:04;100514.84;;;-3.13;70.15
80837;BME280;70251;60.008;30.404;2023-12-28T03:02:30;100511.84;;;-3.02;69.68
80837;BME280;70251;60.008;30.404;2023-12-28T03:04:56;100507.91;;;-2.89;69.99
80837;BME280;70251;60.008;30.404;2023-12-28T03:07:22;100513.66;;;-2.79;69.33
80837;BME280;70251;60.008;30.404;2023-12-28T03:09:47;100500.31;;;-2.72;68.63
80837;BME280;70251;60.008;30.404;2023-12-28T03:12:13;100504.31;;;-2.63;68.79
80837;BME280;70251;60.008;30.404;2023-12-28T03:14:38;100499.38;;;-2.48;68.47
80837;BME280;70251;60.008;30.404;2023-12-28T03:17:04;100501.59;;;-2.37;69.09
80837;BME280;70251;60.008;30.404;2023-12-28T03:19:30;100496.75;;;-2.24;69.00
80837;BME280;70251;60.008;30.404;2023-12-28T03:21:55;100491.88;;;-2.12;68.56
80837;BME280;70251;60.008;30.404;2023-12-28T03:24:21;100487.94;;;-2.00;68.42
80837;BME280;70251;60.008;30.404;2023-12-28T03:26:47;100480.38;;;-1.86;68.32
80837;BME280;70251;60.008;30.404;2023-12-28T03:29:13;100490.38;;;-1.76;68.16
80837;BME280;70251;60.008;30.404;2023-12-28T03:31:39;100488.44;;;-1.71;67.67
80837;BME280;70251;60.008;30.404;2023-12-28T03:34:05;100497.00;;;-1.67;67.22
80837;BME280;70251;60.008;30.404;2023-12-28T03:36:30;100493.47;;;-1.66;67.60
80837;BME280;70251;60.008;30.404;2023-12-28T03:38:56;100495.19;;;-1.65;67.70
80837;BME280;70251;60.008;30.404;2023-12-28T03:41:21;100494.13;;;-1.61;66.97
80837;BME280;70251;60.008;30.404;2023-12-28T03:43:47;100482.69;;;-1.59;67.63
80837;BME280;70251;60.008;30.404;2023-12-28T03:46:13;100491.22;;;-1.53;67.54
80837;BME280;70251;60.008;30.404;2023-12-28T03:48:39;100495.19;;;-1.45;67.61
80837;BME280;70251;60.008;30.404;2023-12-28T03:51:05;100515.13;;;-1.42;67.16
80837;BME280;70251;60.008;30.404;2023-12-28T03:53:32;100513.63;;;-1.48;66.98
80837;BME280;70251;60.008;30.404;2023-12-28T03:56:01;100506.81;;;-1.52;67.41
80837;BME280;70251;60.008;30.404;2023-12-28T03:58:26;100509.19;;;-1.46;67.33
80837;BME280;70251;60.008;30.404;2023-12-28T04:00:52;100496.78;;;-1.41;66.75
80837;BME280;70251;60.008;30.404;2023-12-28T04:03:18;100492.16;;;-1.36;67.37
80837;BME280;70251;60.008;30.404;2023-12-28T04:05:44;100489.38;;;-1.31;67.35
80837;BME280;70251;60.008;30.404;2023-12-28T04:08:09;100501.28;;;-1.24;66.65
80837;BME280;70251;60.008;30.404;2023-12-28T04:10:35;100512.72;;;-1.27;66.90
80837;BME280;70251;60.008;30.404;2023-12-28T04:13:03;100506.44;;;-1.23;66.71
80837;BME280;70251;60.008;30.404;2023-12-28T04:15:29;100500.03;;;-1.16;66.65
80837;BME280;70251;60.008;30.404;2023-12-28T04:17:55;100503.28;;;-1.11;66.21
80837;BME280;70251;60.008;30.404;2023-12-28T04:20:21;100491.13;;;-1.12;67.00
80837;BME280;70251;60.008;30.404;2023-12-28T04:22:47;100500.66;;;-1.11;66.40
80837;BME280;70251;60.008;30.404;2023-12-28T04:25:13;100503.16;;;-1.08;66.65
80837;BME280;70251;60.008;30.404;2023-12-28T04:27:39;100500.41;;;-1.05;66.89
80837;BME280;70251;60.008;30.404;2023-12-28T04:30:05;100491.34;;;-0.98;66.85
80837;BME280;70251;60.008;30.404;2023-12-28T04:32:34;100495.50;;;-0.92;67.09
80837;BME280;70251;60.008;30.404;2023-12-28T04:35:03;100500.66;;;-0.91;66.10
80837;BME280;70251;60.008;30.404;2023-12-28T04:37:29;100497.94;;;-0.89;66.36
80837;BME280;70251;60.008;30.404;2023-12-28T04:39:59;100495.00;;;-0.82;66.21
80837;BME280;70251;60.008;30.404;2023-12-28T04:42:25;100498.25;;;-0.77;66.24
80837;BME280;70251;60.008;30.404;2023-12-28T04:44:50;100496.97;;;-0.68;66.39
80837;BME280;70251;60.008;30.404;2023-12-28T04:47:16;100488.91;;;-0.63;66.73
80837;BME280;70251;60.008;30.404;2023-12-28T04:49:42;100494.88;;;-0.60;66.63
80837;BME280;70251;60.008;30.404;2023-12-28T04:52:08;100485.09;;;-0.56;65.78
80837;BME280;70251;60.008;30.404;2023-12-28T04:54:33;100475.41;;;-0.54;66.24
80837;BME280;70251;60.008;30.404;2023-12-28T04:56:59;100466.47;;;-0.50;66.40
80837;BME280;70251;60.008;30.404;2023-12-28T04:59:25;100474.81;;;-0.42;65.88
80837;BME280;70251;60.008;30.404;2023-12-28T05:01:51;100456.34;;;-0.39;66.02
80837;BME280;70251;60.008;30.404;2023-12-28T05:04:16;100473.50;;;-0.32;65.87
80837;BME280;70251;60.008;30.404;2023-12-28T05:06:43;100475.34;;;-0.34;65.43
80837;BME280;70251;60.008;30.404;2023-12-28T05:09:09;100474.50;;;-0.35;66.19
80837;BME280;70251;60.008;30.404;2023-12-28T05:11:35;100472.72;;;-0.34;65.73
80837;BME280;70251;60.008;30.404;2023-12-28T05:14:00;100474.31;;;-0.32;66.11
80837;BME280;70251;60.008;30.404;2023-12-28T05:16:26;100473.19;;;-0.26;66.23
80837;BME280;70251;60.008;30.404;2023-12-28T05:18:52;100471.34;;;-0.24;65.84
80837;BME280;70251;60.008;30.404;2023-12-28T05:21:17;100467.78;;;-0.23;65.67
80837;BME280;70251;60.008;30.404;2023-12-28T05:23:43;100462.56;;;-0.23;66.09
80837;BME280;70251;60.008;30.404;2023-12-28T05:26:09;100466.97;;;-0.24;65.94
80837;BME280;70251;60.008;30.404;2023-12-28T05:28:35;100456.25;;;-0.19;65.67
80837;BME280;70251;60.008;30.404;2023-12-28T05:31:00;100454.47;;;-0.19;66.18
80837;BME280;70251;60.008;30.404;2023-12-28T05:33:26;100459.59;;;-0.16;65.61
80837;BME280;70251;60.008;30.404;2023-12-28T05:35:52;100460.34;;;-0.14;65.73
80837;BME280;70251;60.008;30.404;2023-12-28T05:38:18;100461.13;;;-0.12;66.15
80837;BME280;70251;60.008;30.404;2023-12-28T05:40:44;100462.75;;;-0.09;65.80
80837;BME280;70251;60.008;30.404;2023-12-28T05:43:11;100465.31;;;-0.08;65.39
80837;BME280;70251;60.008;30.404;2023-12-28T05:45:36;100461.78;;;-0.07;65.73
80837;BME280;70251;60.008;30.404;2023-12-28T05:48:02;100466.00;;;-0.04;66.21
80837;BME280;70251;60.008;30.404;2023-12-28T05:50:28;100475.44;;;0.00;66.33
80837;BME280;70251;60.008;30.404;2023-12-28T05:52:54;100463.88;;;0.04;65.68
80837;BME280;70251;60.008;30.404;2023-12-28T05:55:20;100469.81;;;0.08;65.87
80837;BME280;70251;60.008;30.404;2023-12-28T05:57:46;100478.34;;;0.11;66.26
80837;BME280;70251;60.008;30.404;2023-12-28T06:00:14;100475.59;;;0.14;66.28
80837;BME280;70251;60.008;30.404;2023-12-28T06:02:41;100469.28;;;0.18;65.83
80837;BME280;70251;60.008;30.404;2023-12-28T06:05:06;100471.00;;;0.19;65.53
80837;BME280;70251;60.008;30.404;2023-12-28T06:07:32;100469.13;;;0.21;66.00
80837;BME280;70251;60.008;30.404;2023-12-28T06:09:59;100468.97;;;0.24;65.54
80837;BME280;70251;60.008;30.404;2023-12-28T06:12:24;100468.97;;;0.24;65.97
80837;BME280;70251;60.008;30.404;2023-12-28T06:14:50;100475.75;;;0.28;66.24
80837;BME280;70251;60.008;30.404;2023-12-28T06:17:15;100475.63;;;0.31;66.28
80837;BME280;70251;60.008;30.404;2023-12-28T06:19:41;100471.28;;;0.30;65.95
80837;BME280;70251;60.008;30.404;2023-12-28T06:22:07;100471.78;;;0.38;65.66
80837;BME280;70251;60.008;30.404;2023-12-28T06:24:33;100472.38;;;0.43;65.79
80837;BME280;70251;60.008;30.404;2023-12-28T06:27:00;100469.75;;;0.43;66.03
80837;BME280;70251;60.008;30.404;2023-12-28T06:29:26;100474.84;;;0.46;65.47
80837;BME280;70251;60.008;30.404;2023-12-28T06:31:51;100475.44;;;0.51;66.01
80837;BME280;70251;60.008;30.404;2023-12-28T06:34:17;100477.03;;;0.55;65.57
80837;BME280;70251;60.008;30.404;2023-12-28T06:36:42;100483.94;;;0.56;65.65
80837;BME280;70251;60.008;30.404;2023-12-28T06:39:08;100480.66;;;0.53;65.73
80837;BME280;70251;60.008;30.404;2023-12-28T06:41:34;100493.28;;;0.45;66.31
80837;BME280;70251;60.008;30.404;2023-12-28T06:44:00;100492.59;;;0.41;66.25
80837;BME280;70251;60.008;30.404;2023-12-28T06:46:25;100496.28;;;0.37;65.81
80837;BME280;70251;60.008;30.404;2023-12-28T06:48:51;100491.50;;;0.28;66.60
80837;BME280;70251;60.008;30.404;2023-12-28T06:51:20;100488.88;;;0.28;66.67
80837;BME280;70251;60.008;30.404;2023-12-28T06:53:47;100484.88;;;0.21;66.71
80837;BME280;70251;60.008;30.404;2023-12-28T06:56:19;100484.38;;;0.13;66.61
80837;BME280;70251;60.008;30.404;2023-12-28T06:58:44;100492.97;;;-0.02;66.83
80837;BME280;70251;60.008;30.404;2023-12-28T07:01:10;100492.97;;;-0.02;67.29
80837;BME280;70251;60.008;30.404;2023-12-28T07:03:36;100491.16;;;0.00;67.30
80837;BME280;70251;60.008;30.404;2023-12-28T07:06:02;100504.19;;;0.02;67.24
80837;BME280;70251;60.008;30.404;2023-12-28T07:08:31;100498.09;;;0.01;67.17
80837;BME280;70251;60.008;30.404;2023-12-28T07:10:56;100495.47;;;0.01;67.10
80837;BME280;70251;60.008;30.404;2023-12-28T07:13:22;100505.94;;;0.01;67.27
80837;BME280;70251;60.008;30.404;2023-12-28T07:15:48;100501.91;;;-0.06;67.57
80837;BME280;70251;60.008;30.404;2023-12-28T07:18:13;100503.63;;;-0.05;66.96
80837;BME280;70251;60.008;30.404;2023-12-28T07:20:39;100494.78;;;-0.03;67.27
80837;BME280;70251;60.008;30.404;2023-12-28T07:23:05;100495.75;;;-0.05;67.58
80837;BME280;70251;60.008;30.404;2023-12-28T07:25:31;100504.50;;;-0.05;67.82
80837;BME280;70251;60.008;30.404;2023-12-28T07:27:56;100497.31;;;-0.01;67.58
80837;BME280;70251;60.008;30.404;2023-12-28T07:30:22;100505.03;;;0.02;67.22
80837;BME280;70251;60.008;30.404;2023-12-28T07:32:47;100495.84;;;-0.07;67.88
80837;BME280;70251;60.008;30.404;2023-12-28T07:35:13;100497.41;;;-0.03;68.07
80837;BME280;70251;60.008;30.404;2023-12-28T07:37:39;100503.25;;;0.03;67.27
80837;BME280;70251;60.008;30.404;2023-12-28T07:40:05;100503.34;;;0.01;67.14
80837;BME280;70251;60.008;30.404;2023-12-28T07:42:31;100508.50;;;0.03;67.98
80837;BME280;70251;60.008;30.404;2023-12-28T07:44:56;100505.31;;;-0.04;68.28
80837;BME280;70251;60.008;30.404;2023-12-28T07:47:22;100500.72;;;0.01;67.49
80837;BME280;70251;60.008;30.404;2023-12-28T07:49:48;100486.59;;;0.04;67.86
80837;BME280;70251;60.008;30.404;2023-12-28T07:52:13;100506.50;;;0.08;67.97
80837;BME280;70251;60.008;30.404;2023-12-28T07:54:39;100499.50;;;0.08;68.00
80837;BME280;70251;60.008;30.404;2023-12-28T07:57:04;100498.56;;;0.09;67.79
80837;BME280;70251;60.008;30.404;2023-12-28T07:59:30;100493.25;;;0.11;67.76
80837;BME280;70251;60.008;30.404;2023-12-28T08:01:56;100492.25;;;0.13;67.28
80837;BME280;70251;60.008;30.404;2023-12-28T08:04:22;100489.16;;;0.05;67.47
80837;BME280;70251;60.008;30.404;2023-12-28T08:06:48;100485.75;;;0.03;68.00
80837;BME280;70251;60.008;30.404;2023-12-28T08:09:14;100501.78;;;-0.03;67.70
80837;BME280;70251;60.008;30.404;2023-12-28T08:11:39;100491.31;;;-0.03;68.17
80837;BME280;70251;60.008;30.404;2023-12-28T08:14:05;100493.69;;;0.02;68.36
80837;BME280;70251;60.008;30.404;2023-12-28T08:16:36;100488.28;;;0.05;68.25
80837;BME280;70251;60.008;30.404;2023-12-28T08:19:02;100480.38;;;0.06;68.22
80837;BME280;70251;60.008;30.404;2023-12-28T08:21:27;100481.91;;;0.10;67.94
80837;BME280;70251;60.008;30.404;2023-12-28T08:23:53;100478.34;;;0.11;68.20
80837;BME280;70251;60.008;30.404;2023-12-28T08:26:24;100487.84;;;0.14;67.90
80837;BME280;70251;60.008;30.404;2023-12-28T08:28:49;100477.38;;;0.14;68.48
80837;BME280;70251;60.008;30.404;2023-12-28T08:31:15;100477.44;;;0.12;68.20
80837;BME280;70251;60.008;30.404;2023-12-28T08:33:40;100492.56;;;0.24;68.13
80837;BME280;70251;60.008;30.404;2023-12-28T08:36:07;100483.94;;;0.22;67.66
80837;BME280;70251;60.008;30.404;2023-12-28T08:38:33;100488.19;;;0.25;68.08
80837;BME280;70251;60.008;30.404;2023-12-28T08:40:58;100480.44;;;0.22;68.26
80837;BME280;70251;60.008;30.404;2023-12-28T08:43:24;100473.59;;;0.19;68.50
80837;BME280;70251;60.008;30.404;2023-12-28T08:45:53;100476.06;;;0.22;68.45
80837;BME280;70251;60.008;30.404;2023-12-28T08:48:19;100484.00;;;0.21;68.42
80837;BME280;70251;60.008;30.404;2023-12-28T08:50:45;100475.28;;;0.20;68.33
80837;BME280;70251;60.008;30.404;2023-12-28T08:53:10;100477.06;;;0.20;68.78
80837;BME280;70251;60.008;30.404;2023-12-28T08:55:36;100467.44;;;0.20;69.14
80837;BME280;70251;60.008;30.404;2023-12-28T08:58:01;100464.13;;;0.34;69.07
80837;BME280;70251;60.008;30.404;2023-12-28T09:00:27;100455.94;;;0.40;69.00
80837;BME280;70251;60.008;30.404;2023-12-28T09:02:53;100464.41;;;0.45;69.07
80837;BME280;70251;60.008;30.404;2023-12-28T09:05:19;100466.03;;;0.47;69.11
80837;BME280;70251;60.008;30.404;2023-12-28T09:07:44;100462.06;;;0.40;69.14
80837;BME280;70251;60.008;30.404;2023-12-28T09:10:11;100457.56;;;0.42;69.06
80837;BME280;70251;60.008;30.404;2023-12-28T09:12:37;100461.66;;;0.48;68.80
80837;BME280;70251;60.008;30.404;2023-12-28T09:15:06;100469.28;;;0.52;69.00
80837;BME280;70251;60.008;30.404;2023-12-28T09:17:34;100470.28;;;0.50;69.03
80837;BME280;70251;60.008;30.404;2023-12-28T09:20:00;100463.28;;;0.50;68.69
80837;BME280;70251;60.008;30.404;2023-12-28T09:22:30;100476.22;;;0.53;68.42
80837;BME280;70251;60.008;30.404;2023-12-28T09:24:55;100485.25;;;0.48;68.43
80837;BME280;70251;60.008;30.404;2023-12-28T09:27:21;100479.34;;;0.44;68.31
80837;BME280;70251;60.008;30.404;2023-12-28T09:29:48;100475.94;;;0.42;68.53
80837;BME280;70251;60.008;30.404;2023-12-28T09:32:13;100470.91;;;0.38;68.26
80837;BME280;70251;60.008;30.404;2023-12-28T09:34:40;100472.78;;;0.36;68.77
80837;BME280;70251;60.008;30.404;2023-12-28T09:37:05;100477.25;;;0.34;69.11
80837;BME280;70251;60.008;30.404;2023-12-28T09:39:31;100483.31;;;0.34;68.77
80837;BME280;70251;60.008;30.404;2023-12-28T09:42:04;100472.00;;;0.34;69.23
80837;BME280;70251;60.008;30.404;2023-12-28T09:44:32;100473.91;;;0.30;69.02
80837;BME280;70251;60.008;30.404;2023-12-28T09:46:58;100475.53;;;0.33;69.05
80837;BME280;70251;60.008;30.404;2023-12-28T09:49:25;100475.63;;;0.31;68.85
80837;BME280;70251;60.008;30.404;2023-12-28T09:51:50;100482.25;;;0.38;69.00
80837;BME280;70251;60.008;30.404;2023-12-28T09:54:17;100482.09;;;0.41;68.61
80837;BME280;70251;60.008;30.404;2023-12-28T09:56:44;100480.88;;;0.48;68.94
80837;BME280;70251;60.008;30.404;2023-12-28T09:59:10;100485.19;;;0.49;68.98
80837;BME280;70251;60.008;30.404;2023-12-28T10:01:37;100485.56;;;0.42;68.50
80837;BME280;70251;60.008;30.404;2023-12-28T10:04:03;100490.91;;;0.40;68.67
80837;BME280;70251;60.008;30.404;2023-12-28T10:06:29;100504.16;;;0.37;69.25
80837;BME280;70251;60.008;30.404;2023-12-28T10:08:55;100481.47;;;0.36;68.69
80837;BME280;70251;60.008;30.404;2023-12-28T10:11:21;100482.94;;;0.42;69.18
80837;BME280;70251;60.008;30.404;2023-12-28T10:13:50;100482.63;;;0.48;69.33
80837;BME280;70251;60.008;30.404;2023-12-28T10:16:16;100480.69;;;0.51;69.08
80837;BME280;70251;60.008;30.404;2023-12-28T10:18:42;100477.78;;;0.57;68.87
80837;BME280;70251;60.008;30.404;2023-12-28T10:21:08;100476.72;;;0.61;68.54
80837;BME280;70251;60.008;30.404;2023-12-28T10:23:34;100462.56;;;0.64;68.55
80837;BME280;70251;60.008;30.404;2023-12-28T10:26:00;100457.84;;;0.70;68.47
80837;BME280;70251;60.008;30.404;2023-12-28T10:28:26;100473.75;;;0.67;68.42
80837;BME280;70251;60.008;30.404;2023-12-28T10:30:55;100460.72;;;0.66;68.46
80837;BME280;70251;60.008;30.404;2023-12-28T10:33:24;100463.59;;;0.61;68.45
80837;BME280;70251;60.008;30.404;2023-12-28T10:35:51;100469.84;;;0.59;68.96
80837;BME280;70251;60.008;30.404;2023-12-28T10:38:17;100467.97;;;0.61;68.78
80837;BME280;70251;60.008;30.404;2023-12-28T10:40:47;100455.75;;;0.60;68.74
80837;BME280;70251;60.008;30.404;2023-12-28T10:43:16;100457.38;;;0.62;68.65
80837;BME280;70251;60.008;30.404;2023-12-28T10:45:47;100448.44;;;0.66;68.63
80837;BME280;70251;60.008;30.404;2023-12-28T10:48:17;100458.88;;;0.68;68.99
80837;BME280;70251;60.008;30.404;2023-12-28T10:50:49;100455.97;;;0.72;68.75
80837;BME280;70251;60.008;30.404;2023-12-28T10:53:30;100454.16;;;0.74;68.58
80837;BME280;70251;60.008;30.404;2023-12-28T10:56:17;100465.34;;;0.78;68.61
80837;BME280;70251;60.008;30.404;2023-12-28T10:58:49;100460.16;;;0.76;68.71
80837;BME280;70251;60.008;30.404;2023-12-28T11:01:26;100463.56;;;0.78;68.39
80837;BME280;70251;60.008;30.404;2023-12-28T11:04:31;100452.13;;;0.79;69.21
80837;BME280;70251;60.008;30.404;2023-12-28T11:07:01;100443.47;;;0.77;69.19
80837;BME280;70251;60.008;30.404;2023-12-28T11:09:30;100439.00;;;0.79;69.08
80837;BME280;70251;60.008;30.404;2023-12-28T11:11:57;100433.34;;;0.87;69.22
80837;BME280;70251;60.008;30.404;2023-12-28T11:14:27;100432.25;;;0.91;68.95
80837;BME280;70251;60.008;30.404;2023-12-28T11:16:53;100427.53;;;0.98;68.82
80837;BME280;70251;60.008;30.404;2023-12-28T11:19:20;100425.59;;;1.01;68.70
80837;BME280;70251;60.008;30.404;2023-12-28T11:21:48;100433.13;;;1.07;68.67
80837;BME280;70251;60.008;30.404;2023-12-28T11:24:15;100426.09;;;1.08;68.50
80837;BME280;70251;60.008;30.404;2023-12-28T11:26:42;100415.44;;;1.11;68.24
80837;BME280;70251;60.008;30.404;2023-12-28T11:29:08;100423.00;;;1.17;68.86
80837;BME280;70251;60.008;30.404;2023-12-28T11:31:34;100411.44;;;1.19;68.53
80837;BME280;70251;60.008;30.404;2023-12-28T11:34:01;100420.69;;;1.26;68.56
80837;BME280;70251;60.008;30.404;2023-12-28T11:36:51;100408.28;;;1.30;68.42
80837;BME280;70251;60.008;30.404;2023-12-28T11:39:25;100410.09;;;1.28;68.11
80837;BME280;70251;60.008;30.404;2023-12-28T11:41:59;100415.63;;;1.23;68.83
80837;BME280;70251;60.008;30.404;2023-12-28T11:44:26;100408.56;;;1.24;68.64
80837;BME280;70251;60.008;30.404;2023-12-28T11:46:52;100404.03;;;1.27;68.43
80837;BME280;70251;60.008;30.404;2023-12-28T11:49:25;100397.47;;;1.34;68.03
80837;BME280;70251;60.008;30.404;2023-12-28T11:51:59;100405.09;;;1.39;68.03
80837;BME280;70251;60.008;30.404;2023-12-28T11:54:25;100404.53;;;1.34;68.37
80837;BME280;70251;60.008;30.404;2023-12-28T11:56:52;100402.06;;;1.31;68.35
80837;BME280;70251;60.008;30.404;2023-12-28T11:59:21;100397.47;;;1.34;68.32
80837;BME280;70251;60.008;30.404;2023-12-28T12:01:50;100398.44;;;1.33;68.50
80837;BME280;70251;60.008;30.404;2023-12-28T12:04:20;100396.66;;;1.34;68.03
80837;BME280;70251;60.008;30.404;2023-12-28T12:06:47;100385.53;;;1.29;68.44
80837;BME280;70251;60.008;30.404;2023-12-28T12:09:15;100388.00;;;1.32;68.43
80837;BME280;70251;60.008;30.404;2023-12-28T12:11:41;100388.59;;;1.37;68.38
80837;BME280;70251;60.008;30.404;2023-12-28T12:14:10;100379.28;;;1.31;68.71
80837;BME280;70251;60.008;30.404;2023-12-28T12:16:37;100376.47;;;1.34;68.79
80837;BME280;70251;60.008;30.404;2023-12-28T12:19:06;100381.66;;;1.36;69.01
80837;BME280;70251;60.008;30.404;2023-12-28T12:21:35;100373.56;;;1.39;68.74
80837;BME280;70251;60.008;30.404;2023-12-28T12:24:01;100376.72;;;1.45;68.54
80837;BME280;70251;60.008;30.404;2023-12-28T12:26:28;100369.94;;;1.41;68.79
80837;BME280;70251;60.008;30.404;2023-12-28T12:28:55;100373.41;;;1.42;68.92
80837;BME280;70251;60.008;30.404;2023-12-28T12:31:21;100361.19;;;1.41;68.64
80837;BME280;70251;60.008;30.404;2023-12-28T12:33:47;100363.81;;;1.41;68.99
80837;BME280;70251;60.008;30.404;2023-12-28T12:36:13;100352.41;;;1.42;69.03
80837;BME280;70251;60.008;30.404;2023-12-28T12:38:39;100347.72;;;1.47;69.09
80837;BME280;70251;60.008;30.404;2023-12-28T12:41:05;100358.06;;;1.50;68.71
80837;BME280;70251;60.008;30.404;2023-12-28T12:43:31;100360.69;;;1.50;68.90
80837;BME280;70251;60.008;30.404;2023-12-28T12:45:57;100372.16;;;1.49;68.66